sensor_id;sensor_type;location;lat;lon;timestamp;P1;durP1;ratioP1;P2;durP2;ratioP2
72611;SDS011;60655;52.182;4.474;2023-08-17T00:01:51;7.68;;;2.08;;
72611;SDS011;60655;52.182;4.474;2023-08-17T00:03:53;8.70;;;2.40;;
72611;SDS011;60655;52.182;4.474;2023-08-17T00:05:53;9.10;;;2.22;;
72611;SDS011;60655;52.182;4.474;2023-08-17T00:07:54;9.68;;;2.03;;
72611;SDS011;60655;52.182;4.474;2023-08-17T00:09:55;6.70;;;2.30;;
72611;SDS011;60655;52.182;4.474;2023-08-17T00:11:56;5.80;;;1.98;;
72611;SDS011;60655;52.182;4.474;2023-08-17T00:13:57;8.00;;;1.92;;
72611;SDS011;60655;52.182;4.474;2023-08-17T00:15:58;4.60;;;1.85;;
72611;SDS011;60655;52.182;4.474;2023-08-17T00:17:59;5.85;;;2.03;;
72611;SDS011;60655;52.182;4.474;2023-08-17T00:20:00;5.80;;;1.88;;
72611;SDS011;60655;52.182;4.474;2023-08-17T00:22:01;6.60;;;1.85;;
72611;SDS011;60655;52.182;4.474;2023-08-17T00:24:02;6.65;;;2.20;;
72611;SDS011;60655;52.182;4.474;2023-08-17T00:26:03;6.07;;;1.73;;
72611;SDS011;60655;52.182;4.474;2023-08-17T00:28:04;5.45;;;1.65;;
72611;SDS011;60655;52.182;4.474;2023-08-17T00:30:05;7.15;;;1.75;;
72611;SDS011;60655;52.182;4.474;2023-08-17T00:32:07;4.75;;;1.70;;
72611;SDS011;60655;52.182;4.474;2023-08-17T00:34:08;6.03;;;1.77;;
72611;SDS011;60655;52.182;4.474;2023-08-17T00:36:09;6.43;;;1.80;;
72611;SDS011;60655;52.182;4.474;2023-08-17T00:38:09;6.53;;;1.85;;
72611;SDS011;60655;52.182;4.474;2023-08-17T00:40:10;7.28;;;1.98;;
72611;SDS011;60655;52.182;4.474;2023-08-17T00:42:12;6.43;;;1.92;;
72611;SDS011;60655;52.182;4.474;2023-08-17T00:44:15;7.20;;;2.22;;
72611;SDS011;60655;52.182;4.474;2023-08-17T00:46:16;5.60;;;1.90;;
72611;SDS011;60655;52.182;4.474;2023-08-17T00:48:17;6.40;;;1.73;;
72611;SDS011;60655;52.182;4.474;2023-08-17T00:50:18;5.38;;;1.85;;
72611;SDS011;60655;52.182;4.474;2023-08-17T00:52:20;5.15;;;1.75;;
72611;SDS011;60655;52.182;4.474;2023-08-17T00:54:23;8.27;;;1.70;;
72611;SDS011;60655;52.182;4.474;2023-08-17T00:56:26;5.88;;;1.80;;
72611;SDS011;60655;52.182;4.474;2023-08-17T00:58:28;5.85;;;2.10;;
72611;SDS011;60655;52.182;4.474;2023-08-17T01:00:29;5.57;;;1.52;;
72611;SDS011;60655;52.182;4.474;2023-08-17T01:02:32;6.50;;;1.90;;
72611;SDS011;60655;52.182;4.474;2023-08-17T01:04:33;5.93;;;1.85;;
72611;SDS011;60655;52.182;4.474;2023-08-17T01:06:35;5.82;;;1.70;;
72611;SDS011;60655;52.182;4.474;2023-08-17T01:08:36;5.88;;;1.50;;
72611;SDS011;60655;52.182;4.474;2023-08-17T01:10:44;7.22;;;1.80;;
72611;SDS011;60655;52.182;4.474;2023-08-17T01:12:56;6.00;;;1.63;;
72611;SDS011;60655;52.182;4.474;2023-08-17T01:15:21;5.25;;;1.90;;
72611;SDS011;60655;52.182;4.474;2023-08-17T01:17:40;6.82;;;2.00;;
72611;SDS011;60655;52.182;4.474;2023-08-17T01:19:44;5.80;;;1.80;;
72611;SDS011;60655;52.182;4.474;2023-08-17T01:21:49;7.68;;;1.83;;
72611;SDS011;60655;52.182;4.474;2023-08-17T01:23:51;6.30;;;1.70;;
72611;SDS011;60655;52.182;4.474;2023-08-17T01:25:52;4.90;;;1.55;;
72611;SDS011;60655;52.182;4.474;2023-08-17T01:27:54;7.05;;;1.95;;
72611;SDS011;60655;52.182;4.474;2023-08-17T01:29:55;10.45;;;2.30;;
72611;SDS011;60655;52.182;4.474;2023-08-17T01:34:28;5.85;;;1.83;;
72611;SDS011;60655;52.182;4.474;2023-08-17T01:36:35;5.95;;;1.80;;
72611;SDS011;60655;52.182;4.474;2023-08-17T01:40:41;5.53;;;1.83;;
72611;SDS011;60655;52.182;4.474;2023-08-17T01:42:44;6.75;;;2.10;;
72611;SDS011;60655;52.182;4.474;2023-08-17T01:44:45;6.53;;;1.77;;
72611;SDS011;60655;52.182;4.474;2023-08-17T01:46:46;7.10;;;2.13;;
72611;SDS011;60655;52.182;4.474;2023-08-17T01:48:47;5.03;;;1.80;;
72611;SDS011;60655;52.182;4.474;2023-08-17T01:50:48;7.35;;;2.25;;
72611;SDS011;60655;52.182;4.474;2023-08-17T01:52:49;5.32;;;2.22;;
72611;SDS011;60655;52.182;4.474;2023-08-17T01:54:53;9.35;;;1.90;;
72611;SDS011;60655;52.182;4.474;2023-08-17T01:56:54;7.20;;;2.22;;
72611;SDS011;60655;52.182;4.474;2023-08-17T01:58:55;4.65;;;2.20;;
72611;SDS011;60655;52.182;4.474;2023-08-17T02:00:56;8.68;;;2.00;;
72611;SDS011;60655;52.182;4.474;2023-08-17T02:02:57;4.65;;;2.00;;
72611;SDS011;60655;52.182;4.474;2023-08-17T02:04:58;8.20;;;2.40;;
72611;SDS011;60655;52.182;4.474;2023-08-17T02:06:59;5.82;;;2.60;;
72611;SDS011;60655;52.182;4.474;2023-08-17T02:09:00;6.30;;;2.10;;
72611;SDS011;60655;52.182;4.474;2023-08-17T02:11:01;7.68;;;2.03;;
72611;SDS011;60655;52.182;4.474;2023-08-17T02:13:02;8.95;;;2.30;;
72611;SDS011;60655;52.182;4.474;2023-08-17T02:15:03;6.05;;;2.00;;
72611;SDS011;60655;52.182;4.474;2023-08-17T02:17:04;7.40;;;2.55;;
72611;SDS011;60655;52.182;4.474;2023-08-17T02:19:06;6.70;;;2.30;;
72611;SDS011;60655;52.182;4.474;2023-08-17T02:21:06;6.13;;;2.28;;
72611;SDS011;60655;52.182;4.474;2023-08-17T02:23:07;7.78;;;2.45;;
72611;SDS011;60655;52.182;4.474;2023-08-17T02:25:08;10.85;;;2.40;;
72611;SDS011;60655;52.182;4.474;2023-08-17T02:27:10;11.00;;;2.70;;
72611;SDS011;60655;52.182;4.474;2023-08-17T02:29:11;7.22;;;2.78;;
72611;SDS011;60655;52.182;4.474;2023-08-17T02:31:12;7.70;;;2.47;;
72611;SDS011;60655;52.182;4.474;2023-08-17T02:33:13;6.65;;;2.28;;
72611;SDS011;60655;52.182;4.474;2023-08-17T02:35:14;10.13;;;2.70;;
72611;SDS011;60655;52.182;4.474;2023-08-17T02:37:14;6.82;;;2.33;;
72611;SDS011;60655;52.182;4.474;2023-08-17T02:39:15;8.15;;;2.40;;
72611;SDS011;60655;52.182;4.474;2023-08-17T02:41:16;7.43;;;2.13;;
72611;SDS011;60655;52.182;4.474;2023-08-17T02:43:17;6.25;;;2.03;;
72611;SDS011;60655;52.182;4.474;2023-08-17T02:45:18;7.18;;;2.33;;
72611;SDS011;60655;52.182;4.474;2023-08-17T02:47:19;8.88;;;2.47;;
72611;SDS011;60655;52.182;4.474;2023-08-17T02:49:20;6.47;;;2.10;;
72611;SDS011;60655;52.182;4.474;2023-08-17T02:51:21;6.95;;;2.40;;
72611;SDS011;60655;52.182;4.474;2023-08-17T02:53:22;7.75;;;2.30;;
72611;SDS011;60655;52.182;4.474;2023-08-17T02:55:23;9.27;;;2.40;;
72611;SDS011;60655;52.182;4.474;2023-08-17T02:57:24;6.20;;;2.13;;
72611;SDS011;60655;52.182;4.474;2023-08-17T02:59:25;7.43;;;2.47;;
72611;SDS011;60655;52.182;4.474;2023-08-17T03:01:26;8.55;;;2.20;;
72611;SDS011;60655;52.182;4.474;2023-08-17T03:03:27;7.45;;;2.45;;
72611;SDS011;60655;52.182;4.474;2023-08-17T03:05:28;9.95;;;2.33;;
72611;SDS011;60655;52.182;4.474;2023-08-17T03:07:29;5.70;;;2.10;;
72611;SDS011;60655;52.182;4.474;2023-08-17T03:09:30;5.72;;;2.35;;
72611;SDS011;60655;52.182;4.474;2023-08-17T03:11:31;5.22;;;2.35;;
72611;SDS011;60655;52.182;4.474;2023-08-17T03:13:32;5.88;;;2.30;;
72611;SDS011;60655;52.182;4.474;2023-08-17T03:15:33;10.07;;;2.40;;
72611;SDS011;60655;52.182;4.474;2023-08-17T03:17:33;9.52;;;2.35;;
72611;SDS011;60655;52.182;4.474;2023-08-17T03:19:34;6.85;;;2.13;;
72611;SDS011;60655;52.182;4.474;2023-08-17T03:21:35;10.75;;;2.80;;
72611;SDS011;60655;52.182;4.474;2023-08-17T03:23:36;6.90;;;2.20;;
72611;SDS011;60655;52.182;4.474;2023-08-17T03:25:37;7.03;;;2.63;;
72611;SDS011;60655;52.182;4.474;2023-08-17T03:27:38;11.15;;;2.78;;
72611;SDS011;60655;52.182;4.474;2023-08-17T03:29:39;6.85;;;2.72;;
72611;SDS011;60655;52.182;4.474;2023-08-17T03:31:40;7.85;;;2.38;;
72611;SDS011;60655;52.182;4.474;2023-08-17T03:33:41;10.18;;;2.60;;
72611;SDS011;60655;52.182;4.474;2023-08-17T03:35:42;5.90;;;2.20;;
72611;SDS011;60655;52.182;4.474;2023-08-17T03:37:43;7.20;;;2.28;;
72611;SDS011;60655;52.182;4.474;2023-08-17T03:39:44;9.18;;;2.38;;
72611;SDS011;60655;52.182;4.474;2023-08-17T03:41:45;9.15;;;2.47;;
72611;SDS011;60655;52.182;4.474;2023-08-17T03:43:46;11.25;;;2.90;;
72611;SDS011;60655;52.182;4.474;2023-08-17T03:45:46;7.05;;;2.30;;
72611;SDS011;60655;52.182;4.474;2023-08-17T03:47:47;7.35;;;2.25;;
72611;SDS011;60655;52.182;4.474;2023-08-17T03:49:48;8.05;;;2.22;;
72611;SDS011;60655;52.182;4.474;2023-08-17T03:51:49;8.13;;;2.40;;
72611;SDS011;60655;52.182;4.474;2023-08-17T03:53:50;7.70;;;2.33;;
72611;SDS011;60655;52.182;4.474;2023-08-17T03:55:51;6.13;;;2.40;;
72611;SDS011;60655;52.182;4.474;2023-08-17T03:57:52;6.68;;;2.33;;
72611;SDS011;60655;52.182;4.474;2023-08-17T03:59:53;8.50;;;2.33;;
72611;SDS011;60655;52.182;4.474;2023-08-17T04:01:54;8.40;;;2.90;;
72611;SDS011;60655;52.182;4.474;2023-08-17T04:03:55;8.20;;;2.63;;
72611;SDS011;60655;52.182;4.474;2023-08-17T04:05:56;9.93;;;2.90;;
72611;SDS011;60655;52.182;4.474;2023-08-17T04:07:58;7.35;;;2.30;;
72611;SDS011;60655;52.182;4.474;2023-08-17T04:10:02;7.95;;;2.45;;
72611;SDS011;60655;52.182;4.474;2023-08-17T04:12:05;9.07;;;2.58;;
72611;SDS011;60655;52.182;4.474;2023-08-17T04:14:07;7.78;;;2.30;;
72611;SDS011;60655;52.182;4.474;2023-08-17T04:16:09;6.90;;;2.65;;
72611;SDS011;60655;52.182;4.474;2023-08-17T04:18:10;6.18;;;2.40;;
72611;SDS011;60655;52.182;4.474;2023-08-17T04:20:11;4.50;;;1.83;;
72611;SDS011;60655;52.182;4.474;2023-08-17T04:22:12;6.40;;;2.05;;
72611;SDS011;60655;52.182;4.474;2023-08-17T04:24:13;8.88;;;2.50;;
72611;SDS011;60655;52.182;4.474;2023-08-17T04:26:14;7.43;;;2.30;;
72611;SDS011;60655;52.182;4.474;2023-08-17T04:28:15;8.65;;;2.45;;
72611;SDS011;60655;52.182;4.474;2023-08-17T04:30:16;8.80;;;2.40;;
72611;SDS011;60655;52.182;4.474;2023-08-17T04:32:17;8.00;;;2.72;;
72611;SDS011;60655;52.182;4.474;2023-08-17T04:34:18;10.60;;;2.55;;
72611;SDS011;60655;52.182;4.474;2023-08-17T04:36:19;13.55;;;2.53;;
72611;SDS011;60655;52.182;4.474;2023-08-17T04:38:19;6.93;;;2.33;;
72611;SDS011;60655;52.182;4.474;2023-08-17T04:40:20;4.70;;;2.20;;
72611;SDS011;60655;52.182;4.474;2023-08-17T04:42:21;10.63;;;2.40;;
72611;SDS011;60655;52.182;4.474;2023-08-17T04:44:22;7.10;;;2.70;;
72611;SDS011;60655;52.182;4.474;2023-08-17T04:46:23;6.10;;;2.08;;
72611;SDS011;60655;52.182;4.474;2023-08-17T04:48:24;6.80;;;2.20;;
72611;SDS011;60655;52.182;4.474;2023-08-17T04:50:25;6.30;;;2.15;;
72611;SDS011;60655;52.182;4.474;2023-08-17T04:52:26;7.43;;;2.17;;
72611;SDS011;60655;52.182;4.474;2023-08-17T04:54:27;7.68;;;2.72;;
72611;SDS011;60655;52.182;4.474;2023-08-17T04:56:28;8.38;;;2.10;;
72611;SDS011;60655;52.182;4.474;2023-08-17T04:58:29;6.50;;;2.30;;
72611;SDS011;60655;52.182;4.474;2023-08-17T05:00:30;10.20;;;2.25;;
72611;SDS011;60655;52.182;4.474;2023-08-17T05:02:31;7.35;;;1.98;;
72611;SDS011;60655;52.182;4.474;2023-08-17T05:04:32;5.68;;;2.28;;
72611;SDS011;60655;52.182;4.474;2023-08-17T05:06:33;10.30;;;2.90;;
72611;SDS011;60655;52.182;4.474;2023-08-17T05:08:34;6.60;;;2.42;;
72611;SDS011;60655;52.182;4.474;2023-08-17T05:10:35;6.78;;;2.67;;
72611;SDS011;60655;52.182;4.474;2023-08-17T05:12:36;8.23;;;2.47;;
72611;SDS011;60655;52.182;4.474;2023-08-17T05:14:37;9.00;;;2.45;;
72611;SDS011;60655;52.182;4.474;2023-08-17T05:16:38;8.15;;;2.45;;
72611;SDS011;60655;52.182;4.474;2023-08-17T05:18:38;6.60;;;2.35;;
72611;SDS011;60655;52.182;4.474;2023-08-17T05:20:39;6.07;;;2.45;;
72611;SDS011;60655;52.182;4.474;2023-08-17T05:22:40;8.45;;;2.15;;
72611;SDS011;60655;52.182;4.474;2023-08-17T05:24:41;7.72;;;2.35;;
72611;SDS011;60655;52.182;4.474;2023-08-17T05:26:43;6.53;;;2.33;;
72611;SDS011;60655;52.182;4.474;2023-08-17T05:28:44;7.53;;;2.53;;
72611;SDS011;60655;52.182;4.474;2023-08-17T05:30:45;6.88;;;2.20;;
72611;SDS011;60655;52.182;4.474;2023-08-17T05:32:47;7.30;;;2.40;;
72611;SDS011;60655;52.182;4.474;2023-08-17T05:34:48;7.82;;;2.30;;
72611;SDS011;60655;52.182;4.474;2023-08-17T05:36:49;7.25;;;2.47;;
72611;SDS011;60655;52.182;4.474;2023-08-17T05:38:50;10.27;;;2.97;;
72611;SDS011;60655;52.182;4.474;2023-08-17T05:40:57;7.53;;;2.33;;
72611;SDS011;60655;52.182;4.474;2023-08-17T05:42:59;8.10;;;2.45;;
72611;SDS011;60655;52.182;4.474;2023-08-17T05:45:00;7.10;;;2.70;;
72611;SDS011;60655;52.182;4.474;2023-08-17T05:47:01;11.35;;;2.83;;
72611;SDS011;60655;52.182;4.474;2023-08-17T05:49:02;10.00;;;2.50;;
72611;SDS011;60655;52.182;4.474;2023-08-17T05:51:03;5.47;;;2.30;;
72611;SDS011;60655;52.182;4.474;2023-08-17T05:53:04;8.50;;;2.70;;
72611;SDS011;60655;52.182;4.474;2023-08-17T05:55:05;6.25;;;2.63;;
72611;SDS011;60655;52.182;4.474;2023-08-17T05:57:07;10.05;;;2.90;;
72611;SDS011;60655;52.182;4.474;2023-08-17T05:59:08;8.18;;;2.60;;
72611;SDS011;60655;52.182;4.474;2023-08-17T06:01:09;7.78;;;2.63;;
72611;SDS011;60655;52.182;4.474;2023-08-17T06:03:11;7.53;;;2.72;;
72611;SDS011;60655;52.182;4.474;2023-08-17T06:05:12;9.23;;;3.08;;
72611;SDS011;60655;52.182;4.474;2023-08-17T06:07:13;8.70;;;3.03;;
72611;SDS011;60655;52.182;4.474;2023-08-17T06:09:14;7.20;;;3.03;;
72611;SDS011;60655;52.182;4.474;2023-08-17T06:11:15;7.18;;;2.83;;
72611;SDS011;60655;52.182;4.474;2023-08-17T06:13:16;7.57;;;3.13;;
72611;SDS011;60655;52.182;4.474;2023-08-17T06:15:17;9.23;;;3.03;;
72611;SDS011;60655;52.182;4.474;2023-08-17T06:17:18;8.25;;;3.00;;
72611;SDS011;60655;52.182;4.474;2023-08-17T06:19:18;11.10;;;3.25;;
72611;SDS011;60655;52.182;4.474;2023-08-17T06:21:19;9.57;;;3.20;;
72611;SDS011;60655;52.182;4.474;2023-08-17T06:23:20;9.80;;;3.10;;
72611;SDS011;60655;52.182;4.474;2023-08-17T06:25:21;7.60;;;2.63;;
72611;SDS011;60655;52.182;4.474;2023-08-17T06:27:22;10.95;;;3.67;;
72611;SDS011;60655;52.182;4.474;2023-08-17T06:29:23;10.18;;;2.92;;
72611;SDS011;60655;52.182;4.474;2023-08-17T06:31:24;9.88;;;3.22;;
72611;SDS011;60655;52.182;4.474;2023-08-17T06:33:28;9.27;;;3.22;;
72611;SDS011;60655;52.182;4.474;2023-08-17T06:35:29;12.07;;;3.35;;
72611;SDS011;60655;52.182;4.474;2023-08-17T06:37:30;6.93;;;2.97;;
72611;SDS011;60655;52.182;4.474;2023-08-17T06:39:31;8.60;;;2.97;;
72611;SDS011;60655;52.182;4.474;2023-08-17T06:41:31;11.52;;;3.10;;
72611;SDS011;60655;52.182;4.474;2023-08-17T06:43:32;8.38;;;2.97;;
72611;SDS011;60655;52.182;4.474;2023-08-17T06:45:34;9.40;;;2.80;;
72611;SDS011;60655;52.182;4.474;2023-08-17T06:47:35;9.65;;;2.90;;
72611;SDS011;60655;52.182;4.474;2023-08-17T06:49:36;8.30;;;3.13;;
72611;SDS011;60655;52.182;4.474;2023-08-17T06:51:37;8.40;;;2.92;;
72611;SDS011;60655;52.182;4.474;2023-08-17T06:53:38;10.77;;;2.85;;
72611;SDS011;60655;52.182;4.474;2023-08-17T06:55:38;11.18;;;2.88;;
72611;SDS011;60655;52.182;4.474;2023-08-17T06:57:40;5.88;;;2.50;;
72611;SDS011;60655;52.182;4.474;2023-08-17T06:59:41;8.63;;;2.80;;
72611;SDS011;60655;52.182;4.474;2023-08-17T07:01:42;10.60;;;2.80;;
72611;SDS011;60655;52.182;4.474;2023-08-17T07:03:43;6.47;;;2.30;;
72611;SDS011;60655;52.182;4.474;2023-08-17T07:05:44;9.40;;;2.90;;
72611;SDS011;60655;52.182;4.474;2023-08-17T07:07:45;8.00;;;2.90;;
72611;SDS011;60655;52.182;4.474;2023-08-17T07:09:46;7.60;;;2.88;;
72611;SDS011;60655;52.182;4.474;2023-08-17T07:11:46;10.13;;;3.13;;
72611;SDS011;60655;52.182;4.474;2023-08-17T07:13:47;8.23;;;2.80;;
72611;SDS011;60655;52.182;4.474;2023-08-17T07:15:48;7.18;;;2.50;;
72611;SDS011;60655;52.182;4.474;2023-08-17T07:17:49;8.68;;;2.78;;
72611;SDS011;60655;52.182;4.474;2023-08-17T07:19:50;12.23;;;3.00;;
72611;SDS011;60655;52.182;4.474;2023-08-17T07:21:51;9.55;;;2.88;;
72611;SDS011;60655;52.182;4.474;2023-08-17T07:23:53;8.40;;;2.70;;
72611;SDS011;60655;52.182;4.474;2023-08-17T07:25:55;7.13;;;2.40;;
72611;SDS011;60655;52.182;4.474;2023-08-17T07:27:56;9.23;;;2.50;;
72611;SDS011;60655;52.182;4.474;2023-08-17T07:29:57;9.93;;;2.05;;
72611;SDS011;60655;52.182;4.474;2023-08-17T07:31:58;7.75;;;1.92;;
72611;SDS011;60655;52.182;4.474;2023-08-17T07:34:02;8.35;;;2.40;;
72611;SDS011;60655;52.182;4.474;2023-08-17T07:36:04;11.90;;;1.98;;
72611;SDS011;60655;52.182;4.474;2023-08-17T07:38:05;5.85;;;2.17;;
72611;SDS011;60655;52.182;4.474;2023-08-17T07:40:06;7.18;;;2.15;;
72611;SDS011;60655;52.182;4.474;2023-08-17T07:42:08;8.32;;;2.25;;
72611;SDS011;60655;52.182;4.474;2023-08-17T07:44:09;8.77;;;2.00;;
72611;SDS011;60655;52.182;4.474;2023-08-17T07:46:10;6.53;;;2.00;;
72611;SDS011;60655;52.182;4.474;2023-08-17T07:48:11;6.15;;;1.92;;
72611;SDS011;60655;52.182;4.474;2023-08-17T07:50:12;6.95;;;2.15;;
72611;SDS011;60655;52.182;4.474;2023-08-17T07:52:12;6.18;;;1.90;;
72611;SDS011;60655;52.182;4.474;2023-08-17T07:54:13;6.63;;;1.80;;
72611;SDS011;60655;52.182;4.474;2023-08-17T07:56:14;8.93;;;2.20;;
72611;SDS011;60655;52.182;4.474;2023-08-17T07:58:15;6.05;;;1.70;;
72611;SDS011;60655;52.182;4.474;2023-08-17T08:00:16;5.60;;;1.60;;
72611;SDS011;60655;52.182;4.474;2023-08-17T08:02:17;7.82;;;1.98;;
72611;SDS011;60655;52.182;4.474;2023-08-17T08:04:18;8.88;;;1.70;;
72611;SDS011;60655;52.182;4.474;2023-08-17T08:06:19;7.07;;;1.90;;
72611;SDS011;60655;52.182;4.474;2023-08-17T08:08:21;7.00;;;1.67;;
72611;SDS011;60655;52.182;4.474;2023-08-17T08:10:22;7.40;;;1.90;;
72611;SDS011;60655;52.182;4.474;2023-08-17T08:12:26;6.43;;;1.90;;
72611;SDS011;60655;52.182;4.474;2023-08-17T08:14:27;6.63;;;1.80;;
72611;SDS011;60655;52.182;4.474;2023-08-17T08:16:28;6.25;;;1.67;;
72611;SDS011;60655;52.182;4.474;2023-08-17T08:18:31;6.82;;;1.80;;
72611;SDS011;60655;52.182;4.474;2023-08-17T08:20:32;6.63;;;1.80;;
72611;SDS011;60655;52.182;4.474;2023-08-17T08:22:33;13.05;;;1.70;;
72611;SDS011;60655;52.182;4.474;2023-08-17T08:24:34;8.48;;;1.90;;
72611;SDS011;60655;52.182;4.474;2023-08-17T08:26:35;6.63;;;1.48;;
72611;SDS011;60655;52.182;4.474;2023-08-17T08:28:36;6.05;;;1.88;;
72611;SDS011;60655;52.182;4.474;2023-08-17T08:30:37;6.25;;;1.70;;
72611;SDS011;60655;52.182;4.474;2023-08-17T08:32:41;7.60;;;1.77;;
72611;SDS011;60655;52.182;4.474;2023-08-17T08:34:42;5.47;;;1.60;;
72611;SDS011;60655;52.182;4.474;2023-08-17T08:36:43;6.10;;;1.70;;
72611;SDS011;60655;52.182;4.474;2023-08-17T08:38:44;6.82;;;1.70;;
72611;SDS011;60655;52.182;4.474;2023-08-17T08:40:45;7.38;;;1.45;;
72611;SDS011;60655;52.182;4.474;2023-08-17T08:42:48;5.43;;;1.50;;
72611;SDS011;60655;52.182;4.474;2023-08-17T08:44:49;4.35;;;1.45;;
72611;SDS011;60655;52.182;4.474;2023-08-17T08:46:51;7.50;;;1.83;;
72611;SDS011;60655;52.182;4.474;2023-08-17T08:48:54;6.20;;;1.77;;
72611;SDS011;60655;52.182;4.474;2023-08-17T08:50:55;4.38;;;1.75;;
72611;SDS011;60655;52.182;4.474;2023-08-17T08:53:00;8.90;;;1.70;;
72611;SDS011;60655;52.182;4.474;2023-08-17T08:55:11;3.90;;;1.70;;
72611;SDS011;60655;52.182;4.474;2023-08-17T08:57:15;6.25;;;1.77;;
72611;SDS011;60655;52.182;4.474;2023-08-17T08:59:16;6.47;;;1.85;;
72611;SDS011;60655;52.182;4.474;2023-08-17T09:01:17;6.32;;;1.52;;
72611;SDS011;60655;52.182;4.474;2023-08-17T09:03:18;6.88;;;1.48;;
72611;SDS011;60655;52.182;4.474;2023-08-17T09:05:23;3.72;;;1.80;;
72611;SDS011;60655;52.182;4.474;2023-08-17T09:07:26;4.60;;;1.55;;
72611;SDS011;60655;52.182;4.474;2023-08-17T09:09:29;5.70;;;1.67;;
72611;SDS011;60655;52.182;4.474;2023-08-17T09:11:31;5.53;;;1.67;;
72611;SDS011;60655;52.182;4.474;2023-08-17T09:13:32;6.05;;;1.77;;
72611;SDS011;60655;52.182;4.474;2023-08-17T09:15:33;5.45;;;1.60;;
72611;SDS011;60655;52.182;4.474;2023-08-17T09:17:33;6.47;;;1.63;;
72611;SDS011;60655;52.182;4.474;2023-08-17T09:19:37;8.60;;;1.65;;
72611;SDS011;60655;52.182;4.474;2023-08-17T09:21:38;6.53;;;1.75;;
72611;SDS011;60655;52.182;4.474;2023-08-17T09:23:39;4.82;;;1.30;;
72611;SDS011;60655;52.182;4.474;2023-08-17T09:25:41;7.32;;;2.10;;
72611;SDS011;60655;52.182;4.474;2023-08-17T09:27:42;7.60;;;1.70;;
72611;SDS011;60655;52.182;4.474;2023-08-17T09:29:43;4.75;;;1.60;;
72611;SDS011;60655;52.182;4.474;2023-08-17T09:31:46;6.07;;;1.65;;
72611;SDS011;60655;52.182;4.474;2023-08-17T09:33:50;6.55;;;1.70;;
72611;SDS011;60655;52.182;4.474;2023-08-17T09:35:55;5.38;;;1.77;;
72611;SDS011;60655;52.182;4.474;2023-08-17T09:37:57;6.45;;;1.50;;
72611;SDS011;60655;52.182;4.474;2023-08-17T09:39:58;5.60;;;1.80;;
72611;SDS011;60655;52.182;4.474;2023-08-17T09:41:59;5.35;;;1.80;;
72611;SDS011;60655;52.182;4.474;2023-08-17T09:44:00;5.63;;;1.55;;
72611;SDS011;60655;52.182;4.474;2023-08-17T09:46:02;7.22;;;1.80;;
72611;SDS011;60655;52.182;4.474;2023-08-17T09:48:03;7.00;;;2.05;;
72611;SDS011;60655;52.182;4.474;2023-08-17T09:50:05;5.68;;;1.48;;
72611;SDS011;60655;52.182;4.474;2023-08-17T09:52:06;5.78;;;1.48;;
72611;SDS011;60655;52.182;4.474;2023-08-17T09:54:07;10.38;;;1.67;;
72611;SDS011;60655;52.182;4.474;2023-08-17T09:56:09;7.70;;;1.48;;
72611;SDS011;60655;52.182;4.474;2023-08-17T09:58:13;6.95;;;1.80;;
72611;SDS011;60655;52.182;4.474;2023-08-17T10:00:19;5.75;;;1.40;;
72611;SDS011;60655;52.182;4.474;2023-08-17T10:02:22;11.18;;;2.00;;
72611;SDS011;60655;52.182;4.474;2023-08-17T10:04:24;5.93;;;1.45;;
72611;SDS011;60655;52.182;4.474;2023-08-17T10:06:25;4.68;;;1.40;;
72611;SDS011;60655;52.182;4.474;2023-08-17T10:08:30;5.10;;;1.40;;
72611;SDS011;60655;52.182;4.474;2023-08-17T10:10:34;6.38;;;1.52;;
72611;SDS011;60655;52.182;4.474;2023-08-17T10:12:45;5.05;;;1.30;;
72611;SDS011;60655;52.182;4.474;2023-08-17T10:14:55;6.40;;;1.73;;
72611;SDS011;60655;52.182;4.474;2023-08-17T10:17:06;7.65;;;1.70;;
72611;SDS011;60655;52.182;4.474;2023-08-17T10:22:03;6.03;;;1.50;;
72611;SDS011;60655;52.182;4.474;2023-08-17T10:24:01;8.52;;;1.65;;
72611;SDS011;60655;52.182;4.474;2023-08-17T10:26:03;8.48;;;1.65;;
72611;SDS011;60655;52.182;4.474;2023-08-17T10:28:05;6.40;;;1.50;;
72611;SDS011;60655;52.182;4.474;2023-08-17T10:30:07;9.75;;;1.88;;
72611;SDS011;60655;52.182;4.474;2023-08-17T10:32:11;8.23;;;1.88;;
72611;SDS011;60655;52.182;4.474;2023-08-17T10:34:13;5.95;;;1.60;;
72611;SDS011;60655;52.182;4.474;2023-08-17T10:36:14;5.32;;;1.70;;
72611;SDS011;60655;52.182;4.474;2023-08-17T10:38:16;7.35;;;1.95;;
72611;SDS011;60655;52.182;4.474;2023-08-17T10:40:24;6.57;;;1.60;;
72611;SDS011;60655;52.182;4.474;2023-08-17T10:42:31;6.07;;;2.05;;
72611;SDS011;60655;52.182;4.474;2023-08-17T10:46:47;8.18;;;1.90;;
72611;SDS011;60655;52.182;4.474;2023-08-17T10:48:48;6.47;;;2.15;;
72611;SDS011;60655;52.182;4.474;2023-08-17T10:50:59;4.80;;;1.60;;
72611;SDS011;60655;52.182;4.474;2023-08-17T10:53:09;6.45;;;1.50;;
72611;SDS011;60655;52.182;4.474;2023-08-17T10:55:12;5.35;;;1.80;;
72611;SDS011;60655;52.182;4.474;2023-08-17T10:57:28;6.78;;;1.50;;
72611;SDS011;60655;52.182;4.474;2023-08-17T10:59:33;6.07;;;1.88;;
72611;SDS011;60655;52.182;4.474;2023-08-17T11:01:35;6.88;;;1.90;;
72611;SDS011;60655;52.182;4.474;2023-08-17T11:03:37;5.82;;;1.65;;
72611;SDS011;60655;52.182;4.474;2023-08-17T11:07:43;4.13;;;1.55;;
72611;SDS011;60655;52.182;4.474;2023-08-17T11:09:45;6.40;;;1.77;;
72611;SDS011;60655;52.182;4.474;2023-08-17T11:11:51;7.50;;;2.05;;
72611;SDS011;60655;52.182;4.474;2023-08-17T11:13:54;8.48;;;1.98;;
72611;SDS011;60655;52.182;4.474;2023-08-17T11:15:55;8.02;;;2.10;;
72611;SDS011;60655;52.182;4.474;2023-08-17T11:17:56;7.85;;;2.38;;
72611;SDS011;60655;52.182;4.474;2023-08-17T11:19:57;8.57;;;1.80;;
72611;SDS011;60655;52.182;4.474;2023-08-17T11:21:58;5.88;;;1.80;;
72611;SDS011;60655;52.182;4.474;2023-08-17T11:23:59;5.38;;;1.67;;
72611;SDS011;60655;52.182;4.474;2023-08-17T11:26:01;10.10;;;2.42;;
72611;SDS011;60655;52.182;4.474;2023-08-17T11:28:02;6.88;;;2.08;;
72611;SDS011;60655;52.182;4.474;2023-08-17T11:30:03;5.15;;;2.20;;
72611;SDS011;60655;52.182;4.474;2023-08-17T11:32:05;8.95;;;2.20;;
72611;SDS011;60655;52.182;4.474;2023-08-17T11:34:06;6.40;;;2.50;;
72611;SDS011;60655;52.182;4.474;2023-08-17T11:36:07;6.93;;;2.20;;
72611;SDS011;60655;52.182;4.474;2023-08-17T11:38:10;8.90;;;2.30;;
72611;SDS011;60655;52.182;4.474;2023-08-17T11:40:11;6.70;;;2.05;;
72611;SDS011;60655;52.182;4.474;2023-08-17T11:42:13;6.55;;;2.08;;
72611;SDS011;60655;52.182;4.474;2023-08-17T11:44:14;5.82;;;2.00;;
72611;SDS011;60655;52.182;4.474;2023-08-17T11:46:15;7.93;;;2.35;;
72611;SDS011;60655;52.182;4.474;2023-08-17T11:48:18;6.32;;;2.15;;
72611;SDS011;60655;52.182;4.474;2023-08-17T11:50:20;8.40;;;2.53;;
72611;SDS011;60655;52.182;4.474;2023-08-17T11:52:20;6.85;;;1.95;;
72611;SDS011;60655;52.182;4.474;2023-08-17T11:54:21;6.55;;;2.30;;
72611;SDS011;60655;52.182;4.474;2023-08-17T11:56:23;6.65;;;2.03;;
72611;SDS011;60655;52.182;4.474;2023-08-17T11:58:39;6.05;;;2.38;;
72611;SDS011;60655;52.182;4.474;2023-08-17T12:00:44;6.18;;;2.80;;
72611;SDS011;60655;52.182;4.474;2023-08-17T12:02:49;6.90;;;2.40;;
72611;SDS011;60655;52.182;4.474;2023-08-17T12:04:51;7.25;;;2.28;;
72611;SDS011;60655;52.182;4.474;2023-08-17T12:06:53;7.03;;;2.35;;
72611;SDS011;60655;52.182;4.474;2023-08-17T12:08:54;5.53;;;2.10;;
72611;SDS011;60655;52.182;4.474;2023-08-17T12:10:55;5.88;;;2.30;;
72611;SDS011;60655;52.182;4.474;2023-08-17T12:13:00;5.95;;;2.45;;
72611;SDS011;60655;52.182;4.474;2023-08-17T12:15:01;7.45;;;2.20;;
72611;SDS011;60655;52.182;4.474;2023-08-17T12:17:04;8.57;;;2.95;;
72611;SDS011;60655;52.182;4.474;2023-08-17T12:19:05;6.30;;;2.25;;
72611;SDS011;60655;52.182;4.474;2023-08-17T12:21:06;9.57;;;2.20;;
72611;SDS011;60655;52.182;4.474;2023-08-17T12:23:07;5.35;;;2.20;;
72611;SDS011;60655;52.182;4.474;2023-08-17T12:25:09;8.40;;;2.63;;